createdAt,value
2022-09-14T00:00:20.025Z,6.30
2022-09-14T00:03:07.686Z,5.70
2022-09-14T00:05:35.940Z,6.10
2022-09-14T00:08:04.258Z,6.10
2022-09-14T00:10:31.823Z,6.00
2022-09-14T00:13:00.653Z,5.60
2022-09-14T00:15:28.371Z,5.30
2022-09-14T00:17:55.972Z,5.70
2022-09-14T00:20:23.567Z,5.80
2022-09-14T00:22:51.158Z,6.30
2022-09-14T00:25:18.713Z,5.40
2022-09-14T00:27:46.308Z,5.30
2022-09-14T00:30:14.163Z,5.80
2022-09-14T00:32:41.749Z,6.30
2022-09-14T00:35:09.375Z,5.90
2022-09-14T00:37:36.962Z,5.90
2022-09-14T00:40:05.234Z,5.70
2022-09-14T00:42:32.948Z,4.90
2022-09-14T00:45:20.834Z,4.80
2022-09-14T00:47:50.990Z,4.50
2022-09-14T00:50:18.754Z,3.70
2022-09-14T00:52:48.915Z,3.30
2022-09-14T00:55:18.822Z,3.20
2022-09-14T00:57:48.635Z,2.80
2022-09-14T01:00:18.550Z,3.00
2022-09-14T01:02:46.315Z,3.00
2022-09-14T01:05:14.834Z,2.40
2022-09-14T01:07:50.964Z,2.50
2022-09-14T01:10:24.748Z,2.00
2022-09-14T01:13:11.216Z,1.80
2022-09-14T01:15:44.564Z,2.20
2022-09-14T01:18:17.678Z,2.00
2022-09-14T01:21:01.087Z,1.80
2022-09-14T01:23:47.754Z,2.20
2022-09-14T01:26:34.162Z,2.20
2022-09-14T01:29:14.134Z,1.90
2022-09-14T01:32:02.044Z,2.00
2022-09-14T01:34:34.848Z,2.40
2022-09-14T01:37:05.829Z,2.20
2022-09-14T01:39:34.151Z,2.20
2022-09-14T01:42:02.141Z,2.10
2022-09-14T01:44:34.554Z,1.80
2022-09-14T01:47:06.291Z,2.40
2022-09-14T01:49:42.869Z,2.10
2022-09-14T01:52:16.364Z,2.20
2022-09-14T01:54:50.058Z,2.50
2022-09-14T01:57:23.397Z,2.40
2022-09-14T01:59:52.436Z,2.00
2022-09-14T02:02:29.024Z,2.10
2022-09-14T02:05:19.928Z,2.80
2022-09-14T02:07:47.555Z,3.00
2022-09-14T02:10:16.583Z,3.00
2022-09-14T02:12:44.592Z,2.70
2022-09-14T02:15:13.579Z,2.70
2022-09-14T02:17:41.668Z,3.10
2022-09-14T02:20:11.536Z,3.80
2022-09-14T02:22:39.161Z,3.60
2022-09-14T02:25:07.251Z,3.70
2022-09-14T02:27:34.841Z,4.20
2022-09-14T02:30:02.693Z,4.10
2022-09-14T02:32:56.605Z,4.00
2022-09-14T02:35:39.896Z,3.90
2022-09-14T02:38:13.762Z,5.00
2022-09-14T02:40:46.809Z,4.50
2022-09-14T02:43:33.115Z,5.20
2022-09-14T02:46:01.381Z,5.10
2022-09-14T02:48:48.637Z,4.60
2022-09-14T02:51:25.229Z,5.30
2022-09-14T02:53:52.838Z,5.30
2022-09-14T02:56:21.461Z,5.10
2022-09-14T02:58:49.107Z,5.60
2022-09-14T03:01:19.113Z,5.50
2022-09-14T03:03:47.182Z,5.90
2022-09-14T03:06:14.822Z,6.50
2022-09-14T03:08:43.122Z,6.20
2022-09-14T03:11:11.172Z,6.10
2022-09-14T03:13:39.086Z,5.70
2022-09-14T03:16:07.807Z,5.20
2022-09-14T03:18:35.970Z,5.90
2022-09-14T03:21:08.154Z,6.00
2022-09-14T03:23:36.969Z,5.70
2022-09-14T03:26:08.504Z,5.80
2022-09-14T03:28:36.584Z,5.20
2022-09-14T03:31:05.552Z,4.80
2022-09-14T03:33:33.751Z,5.60
2022-09-14T03:36:01.727Z,5.70
2022-09-14T03:38:30.233Z,4.90
2022-09-14T03:40:58.201Z,5.60
2022-09-14T03:43:26.794Z,4.70
2022-09-14T03:45:54.356Z,4.70
2022-09-14T03:48:21.971Z,4.90
2022-09-14T03:50:49.585Z,5.40
2022-09-14T03:53:17.354Z,5.90
2022-09-14T03:55:44.969Z,5.70
2022-09-14T03:58:12.577Z,5.50
2022-09-14T04:00:40.396Z,5.20
2022-09-14T04:03:08.000Z,5.70
2022-09-14T04:05:35.679Z,6.20
2022-09-14T04:08:03.601Z,5.50
2022-09-14T04:10:31.391Z,5.30
2022-09-14T04:12:59.028Z,5.60
2022-09-14T04:15:26.629Z,5.10
2022-09-14T04:17:54.208Z,4.40
2022-09-14T04:20:21.815Z,4.60
2022-09-14T04:22:49.440Z,5.10
2022-09-14T04:25:17.336Z,4.90
2022-09-14T04:27:55.000Z,6.20
2022-09-14T04:30:32.035Z,5.50
2022-09-14T04:32:59.664Z,6.00
2022-09-14T04:35:27.263Z,6.40
2022-09-14T04:37:55.078Z,6.50
2022-09-14T04:40:22.709Z,6.00
2022-09-14T04:42:50.472Z,6.50
2022-09-14T04:45:18.039Z,6.80
2022-09-14T04:47:45.652Z,6.00
2022-09-14T04:50:13.289Z,6.10
2022-09-14T04:52:40.924Z,6.80
2022-09-14T04:55:08.771Z,6.50
2022-09-14T04:57:36.388Z,6.90
2022-09-14T05:00:04.582Z,7.40
2022-09-14T05:02:32.386Z,7.40
2022-09-14T05:05:00.002Z,8.40
2022-09-14T05:07:27.587Z,7.90
2022-09-14T05:09:55.231Z,8.30
2022-09-14T05:12:22.898Z,8.40
2022-09-14T05:14:50.694Z,8.20
2022-09-14T05:17:18.280Z,7.50
2022-09-14T05:19:46.201Z,9.00
2022-09-14T05:22:15.534Z,9.20
2022-09-14T05:24:43.176Z,8.80
2022-09-14T05:27:11.725Z,11.10
2022-09-14T05:29:40.333Z,11.10
2022-09-14T05:32:07.923Z,11.40
2022-09-14T05:34:35.565Z,11.60
2022-09-14T05:37:03.429Z,12.00
2022-09-14T05:39:31.104Z,11.90
2022-09-14T05:41:58.693Z,11.70
2022-09-14T05:44:26.282Z,12.20
2022-09-14T05:46:53.978Z,11.80
2022-09-14T05:49:21.661Z,12.80
2022-09-14T05:51:49.281Z,13.20
2022-09-14T05:54:16.942Z,12.50
2022-09-14T05:56:44.702Z,12.50
2022-09-14T05:59:12.355Z,12.20
2022-09-14T06:01:40.470Z,11.40
2022-09-14T06:04:10.133Z,12.90
2022-09-14T06:06:37.844Z,13.30
2022-09-14T06:09:05.411Z,11.40
2022-09-14T06:11:36.375Z,10.90
2022-09-14T06:14:04.541Z,11.00
2022-09-14T06:16:32.173Z,10.60
2022-09-14T06:18:59.988Z,12.00
2022-09-14T06:21:28.943Z,12.80
2022-09-14T06:23:56.772Z,11.90
2022-09-14T06:26:24.578Z,11.20
2022-09-14T06:28:53.314Z,10.60
2022-09-14T06:31:22.790Z,10.80
2022-09-14T06:33:51.917Z,11.20
2022-09-14T06:36:21.159Z,12.30
2022-09-14T06:38:49.999Z,10.50
2022-09-14T06:41:23.214Z,10.20
2022-09-14T06:43:51.073Z,10.50
2022-09-14T06:46:21.818Z,10.00
2022-09-14T06:48:51.171Z,10.60
2022-09-14T06:51:23.872Z,10.50
2022-09-14T06:53:51.995Z,9.90
2022-09-14T06:56:19.923Z,9.50
2022-09-14T06:58:48.020Z,10.10
2022-09-14T07:01:16.584Z,9.40
2022-09-14T07:03:44.942Z,9.00
2022-09-14T07:06:21.078Z,9.30
2022-09-14T07:08:49.453Z,8.40
2022-09-14T07:11:18.531Z,8.40
2022-09-14T07:13:46.448Z,8.50
2022-09-14T07:16:14.663Z,8.80
2022-09-14T07:18:43.158Z,8.10
2022-09-14T07:21:12.233Z,7.20
2022-09-14T07:23:41.116Z,7.90
2022-09-14T07:26:08.971Z,8.10
2022-09-14T07:28:37.148Z,7.60
2022-09-14T07:31:06.304Z,7.60
2022-09-14T07:33:34.580Z,6.80
2022-09-14T07:36:06.355Z,6.90
2022-09-14T07:38:51.246Z,5.90
2022-09-14T07:41:21.113Z,5.10
2022-09-14T07:43:50.127Z,5.20
2022-09-14T07:46:18.546Z,4.50
2022-09-14T07:48:46.383Z,4.80
2022-09-14T07:51:14.784Z,4.90
2022-09-14T07:53:43.198Z,4.80
2022-09-14T07:56:11.634Z,4.60
2022-09-14T07:58:39.549Z,4.50
2022-09-14T08:01:08.984Z,4.70
2022-09-14T08:03:36.582Z,4.60
2022-09-14T08:06:08.304Z,4.50
2022-09-14T08:08:38.816Z,4.10
2022-09-14T08:11:08.540Z,4.20
2022-09-14T08:13:36.167Z,3.70
2022-09-14T08:16:05.088Z,3.90
2022-09-14T08:18:33.485Z,3.90
2022-09-14T08:21:08.342Z,3.60
2022-09-14T08:23:36.613Z,3.70
2022-09-14T08:26:20.657Z,3.70
2022-09-14T08:28:50.651Z,3.00
2022-09-14T08:31:21.150Z,3.00
2022-09-14T08:33:50.700Z,2.80
2022-09-14T08:36:19.533Z,2.90
2022-09-14T08:38:47.212Z,2.90
2022-09-14T08:41:27.251Z,2.90
2022-09-14T08:43:55.947Z,2.60
2022-09-14T08:46:31.597Z,2.30
2022-09-14T08:49:00.134Z,2.30
2022-09-14T08:51:28.208Z,2.00
2022-09-14T08:53:57.301Z,2.50
2022-09-14T08:56:26.806Z,1.80
2022-09-14T08:59:03.578Z,1.70
2022-09-14T09:01:49.743Z,1.70
2022-09-14T09:04:25.064Z,2.00
2022-09-14T09:07:14.242Z,2.30
2022-09-14T09:09:46.605Z,1.60
2022-09-14T09:14:59.368Z,1.90
2022-09-14T09:17:46.511Z,1.70
2022-09-14T09:20:14.163Z,1.40
2022-09-14T09:22:44.780Z,1.60
2022-09-14T09:25:17.196Z,1.70
2022-09-14T09:27:44.901Z,1.40
2022-09-14T09:30:13.324Z,1.70
2022-09-14T09:32:42.158Z,2.40
2022-09-14T09:35:14.008Z,1.50
2022-09-14T09:37:41.976Z,1.80
2022-09-14T09:40:17.066Z,1.80
2022-09-14T09:43:03.389Z,1.80
2022-09-14T09:45:49.511Z,2.00
2022-09-14T09:48:18.714Z,1.90
2022-09-14T09:50:52.944Z,1.60
2022-09-14T09:53:21.840Z,1.30
2022-09-14T09:55:50.061Z,1.80
2022-09-14T09:58:23.649Z,1.40
2022-09-14T10:01:17.289Z,1.60
2022-09-14T10:03:59.419Z,1.70
2022-09-14T10:06:27.097Z,1.30
2022-09-14T10:08:57.489Z,1.70
2022-09-14T10:11:28.148Z,1.30
2022-09-14T10:13:55.816Z,1.40
2022-09-14T10:16:24.665Z,1.40
2022-09-14T10:18:53.665Z,1.20
2022-09-14T10:21:22.598Z,1.10
2022-09-14T10:24:20.574Z,1.10
2022-09-14T10:26:48.335Z,1.20
2022-09-14T10:29:21.619Z,1.10
2022-09-14T10:31:50.351Z,0.90
2022-09-14T10:34:19.637Z,1.20
2022-09-14T10:36:51.304Z,1.10
2022-09-14T10:39:26.119Z,1.30
2022-09-14T10:42:13.048Z,1.30
2022-09-14T10:44:44.106Z,1.60
2022-09-14T10:47:11.678Z,1.30
2022-09-14T10:49:48.473Z,1.50
2022-09-14T10:52:16.704Z,1.50
2022-09-14T10:54:44.259Z,1.40
2022-09-14T10:57:21.430Z,1.50
2022-09-14T10:59:56.749Z,1.50
2022-09-14T11:02:30.763Z,1.30
2022-09-14T11:05:01.196Z,1.50
2022-09-14T11:07:44.121Z,1.30
2022-09-14T11:10:14.469Z,1.40
2022-09-14T11:12:58.721Z,1.40
2022-09-14T11:15:35.734Z,1.10
2022-09-14T11:18:06.487Z,1.40
2022-09-14T11:20:46.041Z,1.10
2022-09-14T11:23:19.763Z,0.90
2022-09-14T11:26:05.807Z,1.00
2022-09-14T11:28:39.051Z,1.00
2022-09-14T11:31:12.191Z,1.20
2022-09-14T11:33:41.778Z,1.30
2022-09-14T11:36:28.135Z,1.20
2022-09-14T11:39:02.389Z,1.10
2022-09-14T11:41:41.706Z,0.80
2022-09-14T11:44:18.029Z,0.80
2022-09-14T11:46:49.443Z,1.00
2022-09-14T11:52:10.540Z,0.80
2022-09-14T11:54:44.644Z,0.70
2022-09-14T11:57:17.824Z,0.60
2022-09-14T11:59:48.389Z,0.70
2022-09-14T12:05:04.236Z,0.70
2022-09-14T12:07:46.760Z,0.80
2022-09-14T12:10:17.228Z,0.70
2022-09-14T12:12:53.380Z,0.70
2022-09-14T12:15:27.054Z,0.80
2022-09-14T12:18:00.844Z,0.80
2022-09-14T12:20:29.129Z,0.70
2022-09-14T12:23:17.103Z,0.60
2022-09-14T12:25:59.312Z,1.20
2022-09-14T12:28:29.839Z,0.70
2022-09-14T12:30:57.444Z,1.10
2022-09-14T12:33:34.453Z,0.80
2022-09-14T12:36:03.375Z,1.00
2022-09-14T12:38:30.923Z,0.80
2022-09-14T12:41:15.267Z,0.90
2022-09-14T12:43:42.870Z,0.80
2022-09-14T12:46:30.179Z,0.90
2022-09-14T12:49:15.119Z,0.80
2022-09-14T12:51:47.044Z,0.70
2022-09-14T12:54:23.624Z,0.70
2022-09-14T12:56:51.170Z,0.80
2022-09-14T12:59:24.719Z,1.00
2022-09-14T13:01:58.657Z,1.00
2022-09-14T13:04:28.252Z,1.10
2022-09-14T13:06:57.712Z,0.90
2022-09-14T13:09:27.124Z,0.60
2022-09-14T13:11:56.941Z,0.70
2022-09-14T13:14:26.692Z,0.90
2022-09-14T13:16:54.626Z,0.70
2022-09-14T13:19:22.239Z,0.90
2022-09-14T13:21:50.898Z,0.90
2022-09-14T13:24:19.925Z,0.90
2022-09-14T13:26:48.540Z,0.80
2022-09-14T13:29:16.141Z,1.10
2022-09-14T13:37:22.874Z,1.10
2022-09-14T13:39:52.400Z,0.90
2022-09-14T13:42:26.187Z,0.70
2022-09-14T14:02:33.367Z,0.90
2022-09-14T14:14:41.246Z,1.00
2022-09-14T14:17:28.776Z,0.80
2022-09-14T14:19:58.891Z,0.90
2022-09-14T14:22:28.824Z,1.00
2022-09-14T14:25:14.554Z,0.90
2022-09-14T14:27:43.902Z,0.90
2022-09-14T14:30:18.856Z,0.70
2022-09-14T14:32:53.759Z,1.00
2022-09-14T14:35:26.030Z,0.60
2022-09-14T14:37:54.766Z,1.00
2022-09-14T14:40:23.338Z,0.90
2022-09-14T14:42:51.569Z,1.10
2022-09-14T14:45:20.960Z,0.90
2022-09-14T14:47:50.624Z,0.90
2022-09-14T14:50:22.713Z,1.20
2022-09-14T14:52:51.695Z,0.90
2022-09-14T14:55:21.142Z,0.90
2022-09-14T14:57:49.050Z,1.00
2022-09-14T15:00:18.953Z,1.00
2022-09-14T15:02:46.644Z,1.20
2022-09-14T15:05:14.330Z,0.90
2022-09-14T15:07:41.966Z,1.00
2022-09-14T15:10:12.240Z,0.90
2022-09-14T15:12:39.933Z,1.00
2022-09-14T15:15:11.923Z,1.10
2022-09-14T15:17:39.631Z,1.40
2022-09-14T15:20:07.647Z,1.10
2022-09-14T15:22:36.310Z,1.50
2022-09-14T15:25:04.536Z,1.20
2022-09-14T15:27:32.326Z,1.20
2022-09-14T15:29:59.944Z,1.20
2022-09-14T15:32:27.564Z,1.30
2022-09-14T15:34:55.268Z,1.40
2022-09-14T15:37:22.971Z,1.30
2022-09-14T15:39:53.592Z,1.10
2022-09-14T15:42:21.521Z,1.30
2022-09-14T15:44:49.111Z,1.00
2022-09-14T15:47:17.089Z,1.30
2022-09-14T15:49:44.667Z,1.20
2022-09-14T15:52:12.471Z,1.40
2022-09-14T15:54:40.499Z,0.90
2022-09-14T15:57:09.005Z,1.10
2022-09-14T15:59:36.857Z,1.20
2022-09-14T16:02:04.895Z,1.50
2022-09-14T16:04:39.484Z,1.50
2022-09-14T16:07:11.227Z,1.00
2022-09-14T16:09:39.723Z,1.50
2022-09-14T16:13:02.354Z,1.40
2022-09-14T16:15:30.564Z,1.70
2022-09-14T16:18:01.669Z,1.50
2022-09-14T16:20:29.739Z,1.70
2022-09-14T16:22:58.057Z,1.40
2022-09-14T16:25:26.414Z,1.70
2022-09-14T16:27:55.237Z,2.10
2022-09-14T16:30:23.526Z,1.50
2022-09-14T16:32:58.219Z,1.30
2022-09-14T16:35:26.051Z,1.30
2022-09-14T16:37:57.910Z,1.20
2022-09-14T16:40:25.974Z,1.50
2022-09-14T16:42:53.969Z,1.70
2022-09-14T16:45:29.847Z,1.70
2022-09-14T16:50:54.076Z,1.70
2022-09-14T16:53:21.642Z,1.50
2022-09-14T16:55:49.273Z,1.90
2022-09-14T16:58:16.945Z,1.40
2022-09-14T17:00:44.635Z,1.50
2022-09-14T17:03:12.379Z,1.70
2022-09-14T17:05:40.084Z,1.70
2022-09-14T17:08:08.160Z,1.90
2022-09-14T17:10:36.235Z,1.70
2022-09-14T17:13:03.842Z,1.90
2022-09-14T17:15:31.612Z,2.00
2022-09-14T17:17:59.173Z,2.20
2022-09-14T17:20:27.294Z,2.50
2022-09-14T17:22:55.051Z,2.20
2022-09-14T17:25:23.849Z,2.00
2022-09-14T17:27:51.655Z,2.00
2022-09-14T17:30:19.212Z,1.90
2022-09-14T17:32:47.041Z,2.30
2022-09-14T17:35:14.935Z,2.10
2022-09-14T17:37:45.667Z,2.40
2022-09-14T17:40:13.950Z,2.50
2022-09-14T17:42:42.613Z,2.40
2022-09-14T17:45:10.985Z,2.40
2022-09-14T17:47:39.055Z,2.30
2022-09-14T17:50:06.960Z,2.70
2022-09-14T17:52:35.417Z,2.50
2022-09-14T17:55:03.088Z,2.90
2022-09-14T17:57:30.806Z,2.80
2022-09-14T17:59:58.747Z,2.60
2022-09-14T18:02:27.015Z,2.50
2022-09-14T18:04:55.848Z,3.00
2022-09-14T18:07:23.640Z,2.60
2022-09-14T18:09:51.667Z,2.60
2022-09-14T18:12:20.787Z,2.70
2022-09-14T18:14:49.305Z,2.60
2022-09-14T18:17:17.365Z,3.00
2022-09-14T18:19:44.967Z,2.80
2022-09-14T18:22:12.681Z,3.10
2022-09-14T18:24:40.562Z,2.90
2022-09-14T18:27:08.153Z,3.40
2022-09-14T18:29:35.723Z,2.80
2022-09-14T18:32:03.275Z,3.00
2022-09-14T18:34:31.022Z,2.50
2022-09-14T18:36:58.575Z,3.20
2022-09-14T18:39:26.236Z,2.80
2022-09-14T18:41:54.354Z,3.20
2022-09-14T18:44:22.791Z,2.70
2022-09-14T18:46:51.816Z,2.60
2022-09-14T18:49:19.963Z,2.90
2022-09-14T18:51:47.642Z,2.80
2022-09-14T18:54:15.296Z,3.00
2022-09-14T18:56:43.110Z,3.00
2022-09-14T18:59:12.211Z,3.10
2022-09-14T19:01:42.682Z,3.30
2022-09-14T19:04:11.150Z,3.00
2022-09-14T19:06:38.879Z,3.50
2022-09-14T19:09:06.805Z,3.10
2022-09-14T19:11:35.906Z,3.50
2022-09-14T19:14:07.344Z,2.70
2022-09-14T19:16:35.538Z,3.30
2022-09-14T19:19:03.318Z,3.30
2022-09-14T19:21:31.454Z,3.60
2022-09-14T19:24:00.761Z,3.70
2022-09-14T19:26:30.851Z,3.90
2022-09-14T19:29:02.283Z,3.30
2022-09-14T19:31:30.941Z,3.20
2022-09-14T19:34:02.156Z,3.10
2022-09-14T19:36:36.404Z,3.40
2022-09-14T19:39:04.315Z,3.50
2022-09-14T19:41:33.156Z,3.80
2022-09-14T19:44:01.210Z,4.00
2022-09-14T19:46:31.254Z,4.00
2022-09-14T19:48:58.970Z,3.90
2022-09-14T19:51:29.643Z,3.70
2022-09-14T19:53:59.545Z,3.60
2022-09-14T19:56:28.499Z,4.30
2022-09-14T19:58:58.667Z,3.60
2022-09-14T20:01:27.325Z,3.80
2022-09-14T20:03:55.113Z,3.60
2022-09-14T20:06:26.304Z,3.90
2022-09-14T20:08:55.805Z,3.40
2022-09-14T20:11:24.616Z,4.20
2022-09-14T20:13:58.663Z,4.30
2022-09-14T20:16:28.731Z,4.10
2022-09-14T20:18:57.234Z,4.10
2022-09-14T20:21:25.977Z,3.60
2022-09-14T20:24:15.123Z,4.00
2022-09-14T20:26:47.706Z,4.60
2022-09-14T20:29:16.391Z,4.30
2022-09-14T20:31:44.577Z,4.60
2022-09-14T20:34:12.905Z,4.30
2022-09-14T20:36:41.426Z,4.20
2022-09-14T20:39:09.089Z,3.60
2022-09-14T20:41:36.759Z,4.40
2022-09-14T20:44:05.022Z,4.60
2022-09-14T20:46:38.654Z,4.60
2022-09-14T20:49:11.488Z,4.30
2022-09-14T20:54:07.265Z,4.30
2022-09-14T20:56:35.405Z,4.00
2022-09-14T20:59:04.433Z,4.50
2022-09-14T21:01:33.150Z,4.60
2022-09-14T21:04:11.252Z,4.40
2022-09-14T21:06:40.740Z,4.20
2022-09-14T21:09:09.127Z,4.10
2022-09-14T21:11:36.964Z,3.40
2022-09-14T21:14:04.587Z,4.40
2022-09-14T21:16:33.615Z,3.90
2022-09-14T21:19:02.889Z,4.40
2022-09-14T21:21:30.921Z,4.20
2022-09-14T21:23:59.691Z,4.50
2022-09-14T21:26:29.018Z,4.80
2022-09-14T21:28:57.898Z,4.40
2022-09-14T21:31:26.298Z,4.20
2022-09-14T21:33:55.431Z,4.30
2022-09-14T21:36:24.881Z,4.50
2022-09-14T21:38:54.086Z,4.80
2022-09-14T21:41:22.826Z,4.80
2022-09-14T21:43:50.901Z,4.20
2022-09-14T21:46:18.783Z,4.30
2022-09-14T21:48:46.780Z,4.10
2022-09-14T21:51:18.928Z,4.50
2022-09-14T21:53:47.732Z,4.50
2022-09-14T21:56:16.508Z,4.10
2022-09-14T21:58:44.499Z,4.30
2022-09-14T22:01:12.244Z,3.70
2022-09-14T22:03:40.415Z,4.20
2022-09-14T22:06:11.123Z,4.40
2022-09-14T22:08:39.043Z,4.80
2022-09-14T22:11:07.787Z,4.50
2022-09-14T22:13:35.430Z,4.00
2022-09-14T22:16:08.075Z,4.20
2022-09-14T22:18:36.980Z,3.90
2022-09-14T22:21:05.317Z,4.80
2022-09-14T22:23:33.523Z,4.30
2022-09-14T22:26:05.210Z,4.50
2022-09-14T22:28:33.118Z,4.30
2022-09-14T22:31:00.733Z,4.40
2022-09-14T22:33:29.391Z,4.30
2022-09-14T22:35:58.603Z,4.20
2022-09-14T22:38:27.176Z,4.20
2022-09-14T22:40:56.332Z,4.30
2022-09-14T22:43:24.605Z,4.40
2022-09-14T22:45:52.248Z,4.20
2022-09-14T22:48:20.514Z,4.10
2022-09-14T22:50:49.935Z,3.80
2022-09-14T22:53:17.925Z,4.00
2022-09-14T22:55:45.905Z,4.60
2022-09-14T22:58:14.460Z,4.70
2022-09-14T23:00:42.464Z,4.50
2022-09-14T23:03:10.878Z,4.20
2022-09-14T23:05:39.092Z,4.40
2022-09-14T23:08:07.825Z,4.30
2022-09-14T23:10:38.442Z,4.60
2022-09-14T23:13:06.065Z,4.80
2022-09-14T23:15:37.247Z,5.10
2022-09-14T23:18:05.144Z,4.00
2022-09-14T23:20:35.890Z,4.00
2022-09-14T23:23:03.488Z,4.20
2022-09-14T23:25:31.534Z,4.60
2022-09-14T23:27:59.328Z,4.80
2022-09-14T23:30:27.008Z,4.40
2022-09-14T23:32:54.793Z,3.90
2022-09-14T23:35:22.762Z,3.90
2022-09-14T23:37:50.374Z,3.80
2022-09-14T23:40:20.808Z,3.90
2022-09-14T23:42:48.532Z,4.00
2022-09-14T23:45:16.225Z,4.50
2022-09-14T23:47:46.096Z,4.10
2022-09-14T23:50:13.651Z,3.90
2022-09-14T23:52:41.427Z,3.60
2022-09-14T23:55:09.182Z,3.40
2022-09-14T23:57:36.816Z,3.70
